sensor_id;sensor_type;location;lat;lon;timestamp;temperature;humidity
20200;DHT22;36284;37.236;-121.934;2022-09-16T00:51:41;22.00;99.90
20200;DHT22;36284;37.236;-121.934;2022-09-16T00:54:10;22.10;99.90
20200;DHT22;36284;37.236;-121.934;2022-09-16T00:56:39;22.00;99.90
20200;DHT22;36284;37.236;-121.934;2022-09-16T01:01:53;22.00;99.90
20200;DHT22;36284;37.236;-121.934;2022-09-16T01:04:28;21.90;99.90
20200;DHT22;36284;37.236;-121.934;2022-09-16T01:06:56;21.90;99.90
20200;DHT22;36284;37.236;-121.934;2022-09-16T01:09:23;21.70;99.90
20200;DHT22;36284;37.236;-121.934;2022-09-16T01:11:52;21.50;99.90
20200;DHT22;36284;37.236;-121.934;2022-09-16T01:14:20;21.50;99.90
20200;DHT22;36284;37.236;-121.934;2022-09-16T01:19:54;21.30;99.90
20200;DHT22;36284;37.236;-121.934;2022-09-16T01:33:39;21.00;99.90
20200;DHT22;36284;37.236;-121.934;2022-09-16T01:36:30;21.10;99.90
20200;DHT22;36284;37.236;-121.934;2022-09-16T01:49:54;21.20;99.90
20200;DHT22;36284;37.236;-121.934;2022-09-16T01:55:08;21.20;99.90
20200;DHT22;36284;37.236;-121.934;2022-09-16T02:00:30;21.10;99.90
20200;DHT22;36284;37.236;-121.934;2022-09-16T02:03:11;21.00;99.90
20200;DHT22;36284;37.236;-121.934;2022-09-16T02:05:57;20.90;99.90
20200;DHT22;36284;37.236;-121.934;2022-09-16T02:08:39;20.70;99.90
20200;DHT22;36284;37.236;-121.934;2022-09-16T02:11:09;20.60;99.90
20200;DHT22;36284;37.236;-121.934;2022-09-16T02:13:42;20.60;99.90
20200;DHT22;36284;37.236;-121.934;2022-09-16T02:17:06;20.40;99.90
20200;DHT22;36284;37.236;-121.934;2022-09-16T02:19:20;20.30;99.90
20200;DHT22;36284;37.236;-121.934;2022-09-16T02:21:51;20.10;99.90
20200;DHT22;36284;37.236;-121.934;2022-09-16T02:24:21;20.20;99.90
20200;DHT22;36284;37.236;-121.934;2022-09-16T02:27:00;20.20;99.90
20200;DHT22;36284;37.236;-121.934;2022-09-16T02:29:33;20.00;99.90
20200;DHT22;36284;37.236;-121.934;2022-09-16T02:32:05;20.10;99.90
20200;DHT22;36284;37.236;-121.934;2022-09-16T02:34:43;20.20;99.90
20200;DHT22;36284;37.236;-121.934;2022-09-16T02:37:19;19.90;99.90
20200;DHT22;36284;37.236;-121.934;2022-09-16T02:39:53;19.90;99.90
20200;DHT22;36284;37.236;-121.934;2022-09-16T02:42:23;19.70;99.90
20200;DHT22;36284;37.236;-121.934;2022-09-16T02:44:50;19.80;99.90
20200;DHT22;36284;37.236;-121.934;2022-09-16T02:47:38;19.60;99.90
20200;DHT22;36284;37.236;-121.934;2022-09-16T02:50:21;19.50;99.90
20200;DHT22;36284;37.236;-121.934;2022-09-16T02:53:03;19.40;99.90
20200;DHT22;36284;37.236;-121.934;2022-09-16T02:55:53;19.10;99.90
20200;DHT22;36284;37.236;-121.934;2022-09-16T02:58:22;19.00;99.90
20200;DHT22;36284;37.236;-121.934;2022-09-16T03:00:52;18.90;99.90
20200;DHT22;36284;37.236;-121.934;2022-09-16T03:03:20;18.90;99.90
20200;DHT22;36284;37.236;-121.934;2022-09-16T03:06:13;18.80;99.90
20200;DHT22;36284;37.236;-121.934;2022-09-16T03:08:41;18.80;99.90
20200;DHT22;36284;37.236;-121.934;2022-09-16T03:11:23;18.60;99.90
20200;DHT22;36284;37.236;-121.934;2022-09-16T03:28:09;18.40;99.90
20200;DHT22;36284;37.236;-121.934;2022-09-16T03:30:52;18.30;99.90
20200;DHT22;36284;37.236;-121.934;2022-09-16T03:33:38;18.20;99.90
20200;DHT22;36284;37.236;-121.934;2022-09-16T03:36:09;18.10;99.90
20200;DHT22;36284;37.236;-121.934;2022-09-16T03:38:39;17.90;99.90
20200;DHT22;36284;37.236;-121.934;2022-09-16T03:41:08;18.00;99.90
20200;DHT22;36284;37.236;-121.934;2022-09-16T03:43:35;17.90;99.90
20200;DHT22;36284;37.236;-121.934;2022-09-16T03:46:02;17.60;99.90
20200;DHT22;36284;37.236;-121.934;2022-09-16T03:48:29;17.20;99.90
20200;DHT22;36284;37.236;-121.934;2022-09-16T03:50:56;17.20;99.90
20200;DHT22;36284;37.236;-121.934;2022-09-16T03:53:23;17.00;99.90
20200;DHT22;36284;37.236;-121.934;2022-09-16T03:55:50;17.10;99.90
20200;DHT22;36284;37.236;-121.934;2022-09-16T03:58:17;17.00;99.90
20200;DHT22;36284;37.236;-121.934;2022-09-16T04:00:47;16.90;99.90
20200;DHT22;36284;37.236;-121.934;2022-09-16T04:03:16;16.80;99.90
20200;DHT22;36284;37.236;-121.934;2022-09-16T04:05:43;16.70;99.90
20200;DHT22;36284;37.236;-121.934;2022-09-16T04:08:10;16.90;99.90
20200;DHT22;36284;37.236;-121.934;2022-09-16T04:10:37;16.70;99.90
20200;DHT22;36284;37.236;-121.934;2022-09-16T04:15:31;16.40;99.90
20200;DHT22;36284;37.236;-121.934;2022-09-16T04:17:59;16.50;99.90
20200;DHT22;36284;37.236;-121.934;2022-09-16T06:30:35;14.20;99.90
20200;DHT22;36284;37.236;-121.934;2022-09-16T06:33:02;14.30;99.90
20200;DHT22;36284;37.236;-121.934;2022-09-16T06:35:29;14.80;99.90
20200;DHT22;36284;37.236;-121.934;2022-09-16T06:37:56;14.20;99.90
20200;DHT22;36284;37.236;-121.934;2022-09-16T06:40:25;14.50;99.90
20200;DHT22;36284;37.236;-121.934;2022-09-16T06:42:53;13.90;99.90
20200;DHT22;36284;37.236;-121.934;2022-09-16T06:45:21;14.10;99.90
20200;DHT22;36284;37.236;-121.934;2022-09-16T06:47:47;14.30;99.90
20200;DHT22;36284;37.236;-121.934;2022-09-16T06:50:14;13.90;99.90
20200;DHT22;36284;37.236;-121.934;2022-09-16T06:52:41;13.90;99.90
20200;DHT22;36284;37.236;-121.934;2022-09-16T06:55:08;13.90;99.90
20200;DHT22;36284;37.236;-121.934;2022-09-16T06:57:35;13.90;99.90
20200;DHT22;36284;37.236;-121.934;2022-09-16T07:00:03;13.90;99.90
20200;DHT22;36284;37.236;-121.934;2022-09-16T07:02:30;13.90;99.90
20200;DHT22;36284;37.236;-121.934;2022-09-16T07:04:57;13.80;99.90
20200;DHT22;36284;37.236;-121.934;2022-09-16T07:07:24;13.70;99.90
20200;DHT22;36284;37.236;-121.934;2022-09-16T07:09:51;13.70;99.90
20200;DHT22;36284;37.236;-121.934;2022-09-16T07:12:18;13.60;99.90
20200;DHT22;36284;37.236;-121.934;2022-09-16T07:14:44;13.60;99.90
20200;DHT22;36284;37.236;-121.934;2022-09-16T07:17:11;13.60;99.90
20200;DHT22;36284;37.236;-121.934;2022-09-16T07:19:38;13.50;99.90
20200;DHT22;36284;37.236;-121.934;2022-09-16T07:22:07;13.50;99.90
20200;DHT22;36284;37.236;-121.934;2022-09-16T07:24:36;13.50;99.90
20200;DHT22;36284;37.236;-121.934;2022-09-16T07:27:03;13.40;99.90
20200;DHT22;36284;37.236;-121.934;2022-09-16T07:29:30;13.50;99.90
20200;DHT22;36284;37.236;-121.934;2022-09-16T07:31:57;13.40;99.90
20200;DHT22;36284;37.236;-121.934;2022-09-16T07:34:24;13.40;99.90
20200;DHT22;36284;37.236;-121.934;2022-09-16T07:36:51;13.50;99.90
20200;DHT22;36284;37.236;-121.934;2022-09-16T07:39:18;13.50;99.90
20200;DHT22;36284;37.236;-121.934;2022-09-16T07:41:46;13.40;99.90
20200;DHT22;36284;37.236;-121.934;2022-09-16T07:44:18;13.40;99.90
20200;DHT22;36284;37.236;-121.934;2022-09-16T07:46:45;13.30;99.90
20200;DHT22;36284;37.236;-121.934;2022-09-16T07:49:14;12.90;99.90
20200;DHT22;36284;37.236;-121.934;2022-09-16T07:51:43;13.40;99.90
20200;DHT22;36284;37.236;-121.934;2022-09-16T07:54:12;13.40;99.90
20200;DHT22;36284;37.236;-121.934;2022-09-16T07:56:41;13.40;99.90
20200;DHT22;36284;37.236;-121.934;2022-09-16T07:59:12;13.30;99.90
20200;DHT22;36284;37.236;-121.934;2022-09-16T08:01:39;13.30;99.90
20200;DHT22;36284;37.236;-121.934;2022-09-16T08:04:06;13.30;99.90
20200;DHT22;36284;37.236;-121.934;2022-09-16T08:06:35;13.40;99.90
20200;DHT22;36284;37.236;-121.934;2022-09-16T08:09:03;13.40;99.90
20200;DHT22;36284;37.236;-121.934;2022-09-16T08:11:29;13.30;99.90
20200;DHT22;36284;37.236;-121.934;2022-09-16T08:14:00;13.20;99.90
20200;DHT22;36284;37.236;-121.934;2022-09-16T08:16:27;13.10;99.90
20200;DHT22;36284;37.236;-121.934;2022-09-16T08:18:55;13.20;99.90
20200;DHT22;36284;37.236;-121.934;2022-09-16T08:26:18;13.10;99.90
20200;DHT22;36284;37.236;-121.934;2022-09-16T08:31:15;13.10;99.90
20200;DHT22;36284;37.236;-121.934;2022-09-16T08:33:43;13.20;99.90
20200;DHT22;36284;37.236;-121.934;2022-09-16T08:36:16;13.20;99.90
20200;DHT22;36284;37.236;-121.934;2022-09-16T08:38:44;13.20;99.90
20200;DHT22;36284;37.236;-121.934;2022-09-16T08:41:18;13.20;99.90
20200;DHT22;36284;37.236;-121.934;2022-09-16T08:49:39;13.10;99.90
20200;DHT22;36284;37.236;-121.934;2022-09-16T08:54:48;13.00;99.90
20200;DHT22;36284;37.236;-121.934;2022-09-16T08:57:26;13.00;99.90
20200;DHT22;36284;37.236;-121.934;2022-09-16T08:59:59;13.00;99.90
20200;DHT22;36284;37.236;-121.934;2022-09-16T09:04:54;13.00;99.90
20200;DHT22;36284;37.236;-121.934;2022-09-16T09:07:25;12.90;99.90
20200;DHT22;36284;37.236;-121.934;2022-09-16T09:13:02;13.00;99.90
20200;DHT22;36284;37.236;-121.934;2022-09-16T09:15:43;13.00;99.90
20200;DHT22;36284;37.236;-121.934;2022-09-16T09:18:24;12.90;99.90
20200;DHT22;36284;37.236;-121.934;2022-09-16T09:26:42;12.80;99.90
20200;DHT22;36284;37.236;-121.934;2022-09-16T09:29:25;12.80;99.90
20200;DHT22;36284;37.236;-121.934;2022-09-16T09:35:51;12.70;99.90
20200;DHT22;36284;37.236;-121.934;2022-09-16T09:40:53;12.50;99.90
20200;DHT22;36284;37.236;-121.934;2022-09-16T09:46:06;12.60;99.90
20200;DHT22;36284;37.236;-121.934;2022-09-16T09:49:04;12.60;99.90
20200;DHT22;36284;37.236;-121.934;2022-09-16T09:51:36;12.60;99.90
20200;DHT22;36284;37.236;-121.934;2022-09-16T09:54:26;12.60;99.90
20200;DHT22;36284;37.236;-121.934;2022-09-16T10:02:24;12.50;99.90
20200;DHT22;36284;37.236;-121.934;2022-09-16T10:04:51;12.40;99.90
20200;DHT22;36284;37.236;-121.934;2022-09-16T10:07:20;12.40;99.90
20200;DHT22;36284;37.236;-121.934;2022-09-16T10:09:53;12.50;99.90
20200;DHT22;36284;37.236;-121.934;2022-09-16T10:12:32;12.60;99.90
20200;DHT22;36284;37.236;-121.934;2022-09-16T10:14:59;12.50;99.90
20200;DHT22;36284;37.236;-121.934;2022-09-16T10:17:32;12.50;99.90
20200;DHT22;36284;37.236;-121.934;2022-09-16T10:20:05;12.40;99.90
20200;DHT22;36284;37.236;-121.934;2022-09-16T10:22:35;12.40;99.90
20200;DHT22;36284;37.236;-121.934;2022-09-16T10:25:05;12.40;99.90
20200;DHT22;36284;37.236;-121.934;2022-09-16T10:27:35;12.40;99.90
20200;DHT22;36284;37.236;-121.934;2022-09-16T10:30:20;12.50;99.90
20200;DHT22;36284;37.236;-121.934;2022-09-16T10:32:53;12.50;99.90
20200;DHT22;36284;37.236;-121.934;2022-09-16T10:35:26;12.40;99.90
20200;DHT22;36284;37.236;-121.934;2022-09-16T10:38:01;12.30;99.90
20200;DHT22;36284;37.236;-121.934;2022-09-16T10:40:30;12.20;99.90
20200;DHT22;36284;37.236;-121.934;2022-09-16T10:43:13;12.30;99.90
20200;DHT22;36284;37.236;-121.934;2022-09-16T10:45:47;12.30;99.90
20200;DHT22;36284;37.236;-121.934;2022-09-16T10:48:20;12.30;99.90
20200;DHT22;36284;37.236;-121.934;2022-09-16T10:50:54;12.30;99.90
20200;DHT22;36284;37.236;-121.934;2022-09-16T10:53:35;12.40;99.90
20200;DHT22;36284;37.236;-121.934;2022-09-16T10:56:05;12.40;99.90
20200;DHT22;36284;37.236;-121.934;2022-09-16T10:58:33;12.40;99.90
20200;DHT22;36284;37.236;-121.934;2022-09-16T11:01:12;12.30;99.90
20200;DHT22;36284;37.236;-121.934;2022-09-16T11:03:51;12.30;99.90
20200;DHT22;36284;37.236;-121.934;2022-09-16T11:09:31;12.10;99.90
20200;DHT22;36284;37.236;-121.934;2022-09-16T11:12:28;12.10;99.90
20200;DHT22;36284;37.236;-121.934;2022-09-16T11:17:44;12.20;99.90
20200;DHT22;36284;37.236;-121.934;2022-09-16T11:26:25;12.00;99.90
20200;DHT22;36284;37.236;-121.934;2022-09-16T11:32:48;12.00;99.90
20200;DHT22;36284;37.236;-121.934;2022-09-16T11:35:34;12.00;99.90
20200;DHT22;36284;37.236;-121.934;2022-09-16T11:41:14;11.90;99.90
20200;DHT22;36284;37.236;-121.934;2022-09-16T11:43:54;11.90;99.90
20200;DHT22;36284;37.236;-121.934;2022-09-16T11:46:58;11.80;99.90
20200;DHT22;36284;37.236;-121.934;2022-09-16T11:49:45;11.80;99.90
20200;DHT22;36284;37.236;-121.934;2022-09-16T11:57:45;11.80;99.90
20200;DHT22;36284;37.236;-121.934;2022-09-16T12:00:16;11.90;99.90
20200;DHT22;36284;37.236;-121.934;2022-09-16T12:05:45;11.70;99.90
20200;DHT22;36284;37.236;-121.934;2022-09-16T12:11:30;12.00;99.90
20200;DHT22;36284;37.236;-121.934;2022-09-16T12:16:55;12.00;99.90
20200;DHT22;36284;37.236;-121.934;2022-09-16T12:19:28;11.90;99.90
20200;DHT22;36284;37.236;-121.934;2022-09-16T12:22:03;11.80;99.90
20200;DHT22;36284;37.236;-121.934;2022-09-16T12:24:44;11.70;99.90
20200;DHT22;36284;37.236;-121.934;2022-09-16T12:30:21;11.80;99.90
20200;DHT22;36284;37.236;-121.934;2022-09-16T12:36:17;11.70;99.90
20200;DHT22;36284;37.236;-121.934;2022-09-16T12:38:46;11.60;99.90
20200;DHT22;36284;37.236;-121.934;2022-09-16T12:55:29;11.50;99.90
20200;DHT22;36284;37.236;-121.934;2022-09-16T13:01:14;11.50;99.90
20200;DHT22;36284;37.236;-121.934;2022-09-16T13:03:56;11.60;99.90
20200;DHT22;36284;37.236;-121.934;2022-09-16T13:06:32;11.40;99.90
20200;DHT22;36284;37.236;-121.934;2022-09-16T13:09:22;11.30;99.90
20200;DHT22;36284;37.236;-121.934;2022-09-16T13:12:47;11.30;99.90
20200;DHT22;36284;37.236;-121.934;2022-09-16T13:14:45;11.40;99.90
20200;DHT22;36284;37.236;-121.934;2022-09-16T13:17:13;11.40;99.90
20200;DHT22;36284;37.236;-121.934;2022-09-16T13:19:50;11.40;99.90
20200;DHT22;36284;37.236;-121.934;2022-09-16T13:22:35;11.20;99.90
20200;DHT22;36284;37.236;-121.934;2022-09-16T13:25:19;11.30;99.90
20200;DHT22;36284;37.236;-121.934;2022-09-16T13:27:57;11.40;99.90
20200;DHT22;36284;37.236;-121.934;2022-09-16T13:30:33;11.40;99.90
20200;DHT22;36284;37.236;-121.934;2022-09-16T13:35:45;11.40;99.90
20200;DHT22;36284;37.236;-121.934;2022-09-16T13:41:00;11.50;99.90
20200;DHT22;36284;37.236;-121.934;2022-09-16T13:43:36;11.50;99.90
20200;DHT22;36284;37.236;-121.934;2022-09-16T13:46:08;11.40;99.90
20200;DHT22;36284;37.236;-121.934;2022-09-16T13:48:58;11.30;99.90
20200;DHT22;36284;37.236;-121.934;2022-09-16T13:51:37;11.50;99.90
20200;DHT22;36284;37.236;-121.934;2022-09-16T13:54:21;11.40;99.90
20200;DHT22;36284;37.236;-121.934;2022-09-16T14:00:17;11.50;99.90
20200;DHT22;36284;37.236;-121.934;2022-09-16T14:14:10;11.90;99.90
20200;DHT22;36284;37.236;-121.934;2022-09-16T14:16:41;12.00;99.90
20200;DHT22;36284;37.236;-121.934;2022-09-16T14:22:19;12.10;99.90
20200;DHT22;36284;37.236;-121.934;2022-09-16T14:24:48;12.30;99.90
20200;DHT22;36284;37.236;-121.934;2022-09-16T14:27:32;12.20;99.90
20200;DHT22;36284;37.236;-121.934;2022-09-16T14:30:16;12.50;99.90
20200;DHT22;36284;37.236;-121.934;2022-09-16T14:32:44;12.50;99.90
20200;DHT22;36284;37.236;-121.934;2022-09-16T14:35:19;12.60;99.90
20200;DHT22;36284;37.236;-121.934;2022-09-16T14:37:53;12.70;99.90
20200;DHT22;36284;37.236;-121.934;2022-09-16T14:40:22;12.70;99.90
20200;DHT22;36284;37.236;-121.934;2022-09-16T14:45:22;13.00;99.90
20200;DHT22;36284;37.236;-121.934;2022-09-16T14:47:51;13.10;99.90
20200;DHT22;36284;37.236;-121.934;2022-09-16T14:50:25;13.30;99.90
20200;DHT22;36284;37.236;-121.934;2022-09-16T14:52:58;13.50;99.90
20200;DHT22;36284;37.236;-121.934;2022-09-16T14:55:27;13.60;99.90
20200;DHT22;36284;37.236;-121.934;2022-09-16T14:57:56;13.90;99.90
20200;DHT22;36284;37.236;-121.934;2022-09-16T15:00:27;14.50;99.90
20200;DHT22;36284;37.236;-121.934;2022-09-16T15:03:12;14.70;99.90
20200;DHT22;36284;37.236;-121.934;2022-09-16T15:05:43;15.40;99.90
20200;DHT22;36284;37.236;-121.934;2022-09-16T15:08:27;15.70;99.90
20200;DHT22;36284;37.236;-121.934;2022-09-16T15:10:58;16.40;99.90
20200;DHT22;36284;37.236;-121.934;2022-09-16T15:13:28;16.70;99.90
20200;DHT22;36284;37.236;-121.934;2022-09-16T15:16:06;17.50;99.90
20200;DHT22;36284;37.236;-121.934;2022-09-16T15:18:58;17.90;99.90
20200;DHT22;36284;37.236;-121.934;2022-09-16T15:21:28;17.80;99.90
20200;DHT22;36284;37.236;-121.934;2022-09-16T15:23:59;17.60;99.90
20200;DHT22;36284;37.236;-121.934;2022-09-16T15:26:45;17.90;99.90
20200;DHT22;36284;37.236;-121.934;2022-09-16T15:31:46;18.50;99.90
20200;DHT22;36284;37.236;-121.934;2022-09-16T15:36:50;18.50;99.90
20200;DHT22;36284;37.236;-121.934;2022-09-16T15:39:37;18.70;99.90
20200;DHT22;36284;37.236;-121.934;2022-09-16T15:44:56;18.10;99.90
20200;DHT22;36284;37.236;-121.934;2022-09-16T15:50:15;18.80;99.90
20200;DHT22;36284;37.236;-121.934;2022-09-16T15:53:06;19.20;99.90
20200;DHT22;36284;37.236;-121.934;2022-09-16T16:01:06;19.10;99.90
20200;DHT22;36284;37.236;-121.934;2022-09-16T16:06:14;19.50;99.90
20200;DHT22;36284;37.236;-121.934;2022-09-16T16:08:45;20.10;99.90
20200;DHT22;36284;37.236;-121.934;2022-09-16T16:11:15;20.80;99.90
20200;DHT22;36284;37.236;-121.934;2022-09-16T16:13:42;21.10;99.90
20200;DHT22;36284;37.236;-121.934;2022-09-16T16:16:10;21.00;99.90
20200;DHT22;36284;37.236;-121.934;2022-09-16T16:18:38;21.30;99.90
20200;DHT22;36284;37.236;-121.934;2022-09-16T16:21:15;21.50;99.90
20200;DHT22;36284;37.236;-121.934;2022-09-16T16:23:43;21.40;99.90
20200;DHT22;36284;37.236;-121.934;2022-09-16T16:26:10;21.70;99.90
20200;DHT22;36284;37.236;-121.934;2022-09-16T16:28:37;21.80;99.90
20200;DHT22;36284;37.236;-121.934;2022-09-16T16:31:16;22.00;99.90
20200;DHT22;36284;37.236;-121.934;2022-09-16T16:33:45;21.60;99.90
20200;DHT22;36284;37.236;-121.934;2022-09-16T16:36:14;22.20;99.90
20200;DHT22;36284;37.236;-121.934;2022-09-16T16:38:42;22.00;99.90
20200;DHT22;36284;37.236;-121.934;2022-09-16T16:41:11;22.40;99.90
20200;DHT22;36284;37.236;-121.934;2022-09-16T16:43:39;22.20;99.90
20200;DHT22;36284;37.236;-121.934;2022-09-16T16:46:06;22.60;99.90
20200;DHT22;36284;37.236;-121.934;2022-09-16T16:48:33;22.50;99.90
20200;DHT22;36284;37.236;-121.934;2022-09-16T16:51:09;22.90;99.90
20200;DHT22;36284;37.236;-121.934;2022-09-16T16:53:36;23.60;99.90
20200;DHT22;36284;37.236;-121.934;2022-09-16T16:56:11;23.20;99.90
20200;DHT22;36284;37.236;-121.934;2022-09-16T16:58:38;23.30;99.90
20200;DHT22;36284;37.236;-121.934;2022-09-16T17:01:16;23.40;99.90
20200;DHT22;36284;37.236;-121.934;2022-09-16T17:03:45;24.20;99.90
20200;DHT22;36284;37.236;-121.934;2022-09-16T17:06:13;23.80;99.90
20200;DHT22;36284;37.236;-121.934;2022-09-16T17:08:40;23.70;99.90
20200;DHT22;36284;37.236;-121.934;2022-09-16T17:11:15;23.80;99.90
20200;DHT22;36284;37.236;-121.934;2022-09-16T17:13:45;23.10;99.90
20200;DHT22;36284;37.236;-121.934;2022-09-16T17:16:14;23.80;99.90
20200;DHT22;36284;37.236;-121.934;2022-09-16T17:18:42;23.80;99.90
20200;DHT22;36284;37.236;-121.934;2022-09-16T17:21:15;23.90;99.90
20200;DHT22;36284;37.236;-121.934;2022-09-16T17:23:42;23.10;99.90
20200;DHT22;36284;37.236;-121.934;2022-09-16T17:26:10;24.00;99.90
20200;DHT22;36284;37.236;-121.934;2022-09-16T17:28:38;24.30;99.90
20200;DHT22;36284;37.236;-121.934;2022-09-16T17:31:19;24.40;99.90
20200;DHT22;36284;37.236;-121.934;2022-09-16T17:33:47;24.30;99.90
20200;DHT22;36284;37.236;-121.934;2022-09-16T17:36:15;24.20;99.90
20200;DHT22;36284;37.236;-121.934;2022-09-16T17:38:43;24.10;99.90
20200;DHT22;36284;37.236;-121.934;2022-09-16T17:41:12;23.90;99.90
20200;DHT22;36284;37.236;-121.934;2022-09-16T17:43:40;23.80;99.90
20200;DHT22;36284;37.236;-121.934;2022-09-16T17:46:12;24.80;99.90
20200;DHT22;36284;37.236;-121.934;2022-09-16T17:48:41;24.60;99.90
20200;DHT22;36284;37.236;-121.934;2022-09-16T17:51:09;25.10;99.90
20200;DHT22;36284;37.236;-121.934;2022-09-16T17:53:36;25.00;99.90
20200;DHT22;36284;37.236;-121.934;2022-09-16T17:56:06;24.90;99.90
20200;DHT22;36284;37.236;-121.934;2022-09-16T17:58:35;25.20;99.90
20200;DHT22;36284;37.236;-121.934;2022-09-16T18:01:07;25.40;99.90
20200;DHT22;36284;37.236;-121.934;2022-09-16T18:03:35;24.90;99.90
20200;DHT22;36284;37.236;-121.934;2022-09-16T18:06:08;25.20;99.90
20200;DHT22;36284;37.236;-121.934;2022-09-16T18:08:36;25.90;99.90
20200;DHT22;36284;37.236;-121.934;2022-09-16T18:11:04;25.50;99.90
20200;DHT22;36284;37.236;-121.934;2022-09-16T18:13:31;26.00;99.90
20200;DHT22;36284;37.236;-121.934;2022-09-16T18:16:04;25.90;99.90
20200;DHT22;36284;37.236;-121.934;2022-09-16T18:18:31;24.40;99.90
20200;DHT22;36284;37.236;-121.934;2022-09-16T18:20:58;25.60;99.90
20200;DHT22;36284;37.236;-121.934;2022-09-16T18:23:25;26.50;99.90
20200;DHT22;36284;37.236;-121.934;2022-09-16T18:25:54;26.20;99.90
20200;DHT22;36284;37.236;-121.934;2022-09-16T18:28:22;26.20;99.90
20200;DHT22;36284;37.236;-121.934;2022-09-16T18:31:06;26.60;99.90
20200;DHT22;36284;37.236;-121.934;2022-09-16T18:33:34;25.80;99.90
20200;DHT22;36284;37.236;-121.934;2022-09-16T18:36:03;26.10;99.90
20200;DHT22;36284;37.236;-121.934;2022-09-16T18:38:32;26.00;99.90
20200;DHT22;36284;37.236;-121.934;2022-09-16T18:41:09;27.10;99.90
20200;DHT22;36284;37.236;-121.934;2022-09-16T21:24:06;29.80;99.90
20200;DHT22;36284;37.236;-121.934;2022-09-16T21:26:36;29.80;99.90
20200;DHT22;36284;37.236;-121.934;2022-09-16T21:29:06;28.90;99.90
20200;DHT22;36284;37.236;-121.934;2022-09-16T21:31:34;29.50;99.90
20200;DHT22;36284;37.236;-121.934;2022-09-16T21:34:04;29.80;99.90
20200;DHT22;36284;37.236;-121.934;2022-09-16T21:36:32;30.10;99.90
20200;DHT22;36284;37.236;-121.934;2022-09-16T21:39:05;30.80;99.90
20200;DHT22;36284;37.236;-121.934;2022-09-16T21:41:32;30.50;99.90
20200;DHT22;36284;37.236;-121.934;2022-09-16T21:44:00;29.70;99.90
20200;DHT22;36284;37.236;-121.934;2022-09-16T21:46:34;29.90;99.90
20200;DHT22;36284;37.236;-121.934;2022-09-16T21:49:05;30.40;99.90
20200;DHT22;36284;37.236;-121.934;2022-09-16T21:51:36;29.00;99.90
20200;DHT22;36284;37.236;-121.934;2022-09-16T21:54:06;29.10;99.90
20200;DHT22;36284;37.236;-121.934;2022-09-16T21:56:36;29.80;99.90
20200;DHT22;36284;37.236;-121.934;2022-09-16T21:59:04;29.70;99.90
20200;DHT22;36284;37.236;-121.934;2022-09-16T22:01:31;29.20;99.90
20200;DHT22;36284;37.236;-121.934;2022-09-16T22:04:02;29.40;99.90
20200;DHT22;36284;37.236;-121.934;2022-09-16T22:06:29;29.70;99.90
20200;DHT22;36284;37.236;-121.934;2022-09-16T22:08:58;28.90;99.90
20200;DHT22;36284;37.236;-121.934;2022-09-16T22:11:28;28.40;99.90
20200;DHT22;36284;37.236;-121.934;2022-09-16T22:13:56;28.10;99.90
20200;DHT22;36284;37.236;-121.934;2022-09-16T22:16:27;28.10;99.90
20200;DHT22;36284;37.236;-121.934;2022-09-16T22:21:36;27.90;99.90
20200;DHT22;36284;37.236;-121.934;2022-09-16T22:24:04;28.40;99.90
20200;DHT22;36284;37.236;-121.934;2022-09-16T22:26:32;28.90;99.90
20200;DHT22;36284;37.236;-121.934;2022-09-16T22:28:59;28.90;99.90
20200;DHT22;36284;37.236;-121.934;2022-09-16T22:31:28;29.00;99.90
20200;DHT22;36284;37.236;-121.934;2022-09-16T22:33:58;28.80;99.90
20200;DHT22;36284;37.236;-121.934;2022-09-16T22:36:28;29.00;99.90
20200;DHT22;36284;37.236;-121.934;2022-09-16T22:38:58;28.90;99.90
20200;DHT22;36284;37.236;-121.934;2022-09-16T22:41:26;28.80;99.90
20200;DHT22;36284;37.236;-121.934;2022-09-16T22:43:54;28.40;99.90
20200;DHT22;36284;37.236;-121.934;2022-09-16T22:46:23;28.40;99.90
20200;DHT22;36284;37.236;-121.934;2022-09-16T22:48:51;27.90;99.90
20200;DHT22;36284;37.236;-121.934;2022-09-16T22:51:18;28.20;99.90
20200;DHT22;36284;37.236;-121.934;2022-09-16T22:53:46;28.50;99.90
20200;DHT22;36284;37.236;-121.934;2022-09-16T22:56:15;27.80;99.90
20200;DHT22;36284;37.236;-121.934;2022-09-16T22:58:43;28.30;99.90
20200;DHT22;36284;37.236;-121.934;2022-09-16T23:01:13;27.40;99.90
20200;DHT22;36284;37.236;-121.934;2022-09-16T23:03:40;27.80;99.90
20200;DHT22;36284;37.236;-121.934;2022-09-16T23:06:09;28.00;99.90
20200;DHT22;36284;37.236;-121.934;2022-09-16T23:08:40;28.40;99.90
20200;DHT22;36284;37.236;-121.934;2022-09-16T23:11:10;28.50;99.90
20200;DHT22;36284;37.236;-121.934;2022-09-16T23:13:38;27.30;99.90
20200;DHT22;36284;37.236;-121.934;2022-09-16T23:16:11;27.60;99.90
20200;DHT22;36284;37.236;-121.934;2022-09-16T23:18:39;28.10;99.90
20200;DHT22;36284;37.236;-121.934;2022-09-16T23:21:08;28.00;99.90
20200;DHT22;36284;37.236;-121.934;2022-09-16T23:23:37;28.10;99.90
20200;DHT22;36284;37.236;-121.934;2022-09-16T23:26:07;27.90;99.90
20200;DHT22;36284;37.236;-121.934;2022-09-16T23:28:34;27.70;99.90
20200;DHT22;36284;37.236;-121.934;2022-09-16T23:31:10;27.80;99.90
20200;DHT22;36284;37.236;-121.934;2022-09-16T23:33:38;27.50;99.90
20200;DHT22;36284;37.236;-121.934;2022-09-16T23:36:06;27.90;99.90
20200;DHT22;36284;37.236;-121.934;2022-09-16T23:38:34;27.60;99.90
20200;DHT22;36284;37.236;-121.934;2022-09-16T23:41:07;27.50;99.90
20200;DHT22;36284;37.236;-121.934;2022-09-16T23:43:38;26.90;99.90
20200;DHT22;36284;37.236;-121.934;2022-09-16T23:46:11;26.30;99.90
20200;DHT22;36284;37.236;-121.934;2022-09-16T23:48:39;26.60;99.90
20200;DHT22;36284;37.236;-121.934;2022-09-16T23:51:07;26.60;99.90
20200;DHT22;36284;37.236;-121.934;2022-09-16T23:53:35;26.80;99.90
20200;DHT22;36284;37.236;-121.934;2022-09-16T23:56:10;26.80;99.90
20200;DHT22;36284;37.236;-121.934;2022-09-16T23:58:38;25.90;99.90
